createdAt,value
2023-01-02T00:01:24.500Z,22.42
2023-01-02T00:03:54.004Z,21.80
2023-01-02T00:06:21.343Z,21.00
2023-01-02T00:08:48.703Z,22.45
2023-01-02T00:11:16.271Z,23.05
2023-01-02T00:13:43.566Z,20.00
2023-01-02T00:16:10.864Z,22.45
2023-01-02T00:18:38.122Z,24.23
2023-01-02T00:21:08.277Z,21.23
2023-01-02T00:23:35.745Z,19.15
2023-01-02T00:26:03.211Z,16.67
2023-01-02T00:28:31.402Z,21.27
2023-01-02T00:30:58.986Z,23.10
2023-01-02T00:33:26.337Z,20.58
2023-01-02T00:35:53.628Z,19.05
2023-01-02T00:38:21.092Z,19.75
2023-01-02T00:40:48.489Z,21.67
2023-01-02T00:43:16.847Z,22.65
2023-01-02T00:45:44.512Z,21.52
2023-01-02T00:48:11.955Z,19.98
2023-01-02T00:50:39.259Z,25.13
2023-01-02T00:53:06.546Z,19.50
2023-01-02T00:55:33.831Z,21.20
2023-01-02T00:58:02.589Z,22.08
2023-01-02T01:00:29.999Z,18.65
2023-01-02T01:02:58.715Z,37.95
2023-01-02T01:05:26.904Z,21.33
2023-01-02T01:07:58.153Z,21.20
2023-01-02T01:10:26.200Z,21.67
2023-01-02T01:12:53.497Z,21.13
2023-01-02T01:15:20.943Z,19.95
2023-01-02T01:17:48.295Z,20.60
2023-01-02T01:20:15.678Z,18.23
2023-01-02T01:22:43.026Z,23.30
2023-01-02T01:25:10.707Z,20.05
2023-01-02T01:27:38.298Z,16.83
2023-01-02T01:30:06.671Z,19.13
2023-01-02T01:32:34.614Z,17.25
2023-01-02T01:35:02.168Z,18.67
2023-01-02T01:37:29.573Z,20.40
2023-01-02T01:39:57.232Z,25.17
2023-01-02T01:42:24.888Z,20.58
2023-01-02T01:44:54.179Z,23.88
2023-01-02T01:47:41.440Z,20.52
2023-01-02T01:50:21.992Z,22.25
2023-01-02T01:53:16.751Z,20.50
2023-01-02T01:55:53.904Z,18.70
2023-01-02T01:58:28.821Z,19.17
2023-01-02T02:00:56.953Z,17.65
2023-01-02T02:03:26.930Z,18.20
2023-01-02T02:05:54.480Z,22.08
2023-01-02T02:08:29.064Z,16.08
2023-01-02T02:10:57.188Z,16.10
2023-01-02T02:13:24.542Z,18.52
2023-01-02T02:16:13.791Z,21.63
2023-01-02T02:19:04.418Z,15.13
2023-01-02T02:21:49.772Z,18.92
2023-01-02T02:24:32.017Z,20.48
2023-01-02T02:27:17.624Z,12.93
2023-01-02T02:30:07.983Z,15.40
2023-01-02T02:33:18.217Z,15.80
2023-01-02T02:35:49.418Z,15.25
2023-01-02T02:38:32.609Z,12.82
2023-01-02T02:43:50.150Z,19.75
2023-01-02T02:46:28.272Z,14.13
2023-01-02T02:49:04.431Z,13.60
2023-01-02T02:51:51.538Z,16.30
2023-01-02T02:54:29.708Z,18.05
2023-01-02T02:56:57.418Z,16.02
2023-01-02T02:59:26.423Z,17.98
2023-01-02T03:01:53.810Z,16.45
2023-01-02T03:04:22.871Z,17.17
2023-01-02T03:07:08.292Z,17.73
2023-01-02T03:09:49.537Z,14.80
2023-01-02T03:12:34.878Z,15.23
2023-01-02T03:15:53.565Z,19.73
2023-01-02T03:18:32.192Z,16.00
2023-01-02T03:21:13.263Z,14.88
2023-01-02T03:23:47.771Z,23.88
2023-01-02T03:26:18.415Z,18.35
2023-01-02T03:28:49.088Z,15.98
2023-01-02T03:31:19.625Z,16.52
2023-01-02T03:33:52.234Z,16.13
2023-01-02T03:36:24.434Z,18.05
2023-01-02T03:39:19.850Z,12.95
2023-01-02T03:42:00.140Z,12.38
2023-01-02T03:44:35.152Z,15.07
2023-01-02T03:47:17.831Z,18.23
2023-01-02T03:49:47.933Z,14.43
2023-01-02T03:52:16.949Z,13.57
2023-01-02T03:54:47.831Z,14.48
2023-01-02T03:57:21.199Z,15.13
2023-01-02T04:00:10.957Z,15.20
2023-01-02T04:02:47.447Z,14.20
2023-01-02T04:05:25.541Z,15.32
2023-01-02T04:08:17.115Z,16.52
2023-01-02T04:10:47.262Z,21.77
2023-01-02T04:13:46.924Z,14.85
2023-01-02T04:16:17.548Z,15.85
2023-01-02T04:18:58.160Z,17.25
2023-01-02T04:21:28.690Z,15.27
2023-01-02T04:24:07.221Z,11.82
2023-01-02T04:26:40.211Z,20.27
2023-01-02T04:29:07.736Z,17.08
2023-01-02T04:31:47.951Z,13.85
2023-01-02T04:34:16.595Z,18.08
2023-01-02T04:36:44.406Z,13.23
2023-01-02T04:39:11.906Z,16.77
2023-01-02T04:41:40.195Z,16.30
2023-01-02T04:44:07.634Z,14.70
2023-01-02T04:46:35.023Z,13.88
2023-01-02T04:49:02.437Z,9.38
2023-01-02T04:51:30.444Z,10.68
2023-01-02T04:53:57.803Z,12.70
2023-01-02T04:56:26.647Z,15.98
2023-01-02T04:58:53.986Z,16.17
2023-01-02T05:01:22.085Z,10.80
2023-01-02T05:03:52.871Z,13.18
2023-01-02T05:06:20.334Z,14.38
2023-01-02T05:08:47.774Z,9.80
2023-01-02T05:11:19.865Z,6.95
2023-01-02T05:13:47.378Z,8.82
2023-01-02T05:16:14.861Z,7.82
2023-01-02T05:18:42.280Z,9.45
2023-01-02T05:21:32.206Z,6.60
2023-01-02T05:24:02.321Z,8.05
2023-01-02T05:26:32.770Z,5.47
2023-01-02T05:29:00.698Z,2.85
2023-01-02T05:31:28.481Z,3.45
2023-01-02T05:33:57.368Z,2.65
2023-01-02T05:36:25.718Z,3.30
2023-01-02T05:38:53.534Z,3.60
2023-01-02T05:41:21.608Z,4.72
2023-01-02T05:43:49.106Z,5.50
2023-01-02T05:46:18.462Z,6.30
2023-01-02T05:48:46.567Z,7.50
2023-01-02T05:51:15.584Z,7.07
2023-01-02T05:53:43.081Z,7.18
2023-01-02T05:56:13.376Z,5.85
2023-01-02T05:58:43.614Z,6.97
2023-01-02T06:01:14.077Z,5.60
2023-01-02T06:03:44.672Z,5.30
2023-01-02T06:06:12.491Z,6.53
2023-01-02T06:08:39.903Z,4.97
2023-01-02T06:11:07.585Z,5.28
2023-01-02T06:13:36.350Z,5.18
2023-01-02T06:16:04.449Z,4.93
2023-01-02T06:18:33.537Z,6.80
2023-01-02T06:21:01.889Z,6.35
2023-01-02T06:23:29.794Z,8.13
2023-01-02T06:26:01.825Z,8.00
2023-01-02T06:28:29.157Z,9.23
2023-01-02T06:31:00.875Z,9.50
2023-01-02T06:33:29.234Z,9.13
2023-01-02T06:36:08.959Z,9.73
2023-01-02T06:38:36.728Z,9.45
2023-01-02T06:41:05.605Z,7.25
2023-01-02T06:43:34.339Z,8.07
2023-01-02T06:46:04.565Z,7.43
2023-01-02T06:48:32.816Z,8.05
2023-01-02T06:51:00.209Z,10.02
2023-01-02T06:53:27.690Z,9.52
2023-01-02T06:55:58.911Z,8.30
2023-01-02T06:58:29.022Z,9.10
2023-01-02T07:01:00.845Z,6.82
2023-01-02T07:03:28.208Z,8.15
2023-01-02T07:05:59.574Z,7.72
2023-01-02T07:08:26.912Z,7.82
2023-01-02T07:10:54.471Z,7.10
2023-01-02T07:13:21.759Z,7.80
2023-01-02T07:15:49.066Z,7.82
2023-01-02T07:18:16.408Z,5.68
2023-01-02T07:20:43.731Z,5.78
2023-01-02T07:23:11.038Z,5.93
2023-01-02T07:25:44.254Z,6.47
2023-01-02T07:28:12.091Z,5.70
2023-01-02T07:30:39.460Z,7.03
2023-01-02T07:33:06.864Z,5.85
2023-01-02T07:35:34.189Z,5.22
2023-01-02T07:38:01.511Z,5.97
2023-01-02T07:40:32.116Z,5.53
2023-01-02T07:43:00.043Z,6.43
2023-01-02T07:45:27.432Z,5.10
2023-01-02T07:47:54.818Z,7.40
2023-01-02T07:50:22.217Z,8.05
2023-01-02T07:52:49.525Z,8.38
2023-01-02T07:55:17.326Z,4.78
2023-01-02T07:57:47.651Z,5.85
2023-01-02T08:00:16.798Z,6.85
2023-01-02T08:02:44.149Z,6.72
2023-01-02T08:05:11.653Z,6.57
2023-01-02T08:07:44.673Z,5.90
2023-01-02T08:10:13.573Z,8.55
2023-01-02T08:12:41.039Z,11.00
2023-01-02T08:15:08.742Z,10.00
2023-01-02T08:17:36.113Z,9.77
2023-01-02T08:20:08.095Z,11.23
2023-01-02T08:22:36.036Z,9.13
2023-01-02T08:25:03.940Z,12.48
2023-01-02T08:27:31.289Z,10.15
2023-01-02T08:29:58.838Z,14.43
2023-01-02T08:32:26.227Z,12.02
2023-01-02T08:34:53.628Z,9.27
2023-01-02T08:37:21.028Z,10.18
2023-01-02T08:39:48.810Z,10.93
2023-01-02T08:42:16.119Z,13.48
2023-01-02T08:44:43.618Z,11.32
2023-01-02T08:47:11.307Z,9.73
2023-01-02T08:49:38.596Z,7.93
2023-01-02T08:52:06.418Z,8.43
2023-01-02T08:54:35.004Z,10.10
2023-01-02T08:57:02.797Z,10.98
2023-01-02T08:59:30.205Z,11.20
2023-01-02T09:01:57.635Z,11.07
2023-01-02T09:04:25.056Z,6.07
2023-01-02T09:06:52.361Z,7.68
2023-01-02T09:09:19.841Z,10.05
2023-01-02T09:11:51.911Z,7.40
2023-01-02T09:14:21.825Z,9.20
2023-01-02T09:16:50.724Z,9.77
2023-01-02T09:19:18.293Z,7.63
2023-01-02T09:21:46.906Z,7.10
2023-01-02T09:24:14.346Z,11.48
2023-01-02T09:26:42.641Z,10.73
2023-01-02T09:29:11.523Z,6.82
2023-01-02T09:31:39.707Z,12.00
2023-01-02T09:34:07.530Z,9.40
2023-01-02T09:36:35.939Z,11.02
2023-01-02T09:39:04.475Z,6.70
2023-01-02T09:41:52.175Z,7.95
2023-01-02T09:44:44.633Z,11.60
2023-01-02T09:47:11.928Z,9.93
2023-01-02T09:49:44.830Z,11.40
2023-01-02T09:54:51.936Z,12.88
2023-01-02T09:57:46.871Z,8.95
2023-01-02T10:00:25.786Z,8.68
2023-01-02T10:03:11.791Z,14.00
2023-01-02T10:06:17.894Z,10.45
2023-01-02T10:09:00.508Z,9.57
2023-01-02T10:11:36.646Z,11.27
2023-01-02T10:14:32.114Z,8.57
2023-01-02T10:17:00.511Z,7.03
2023-01-02T10:19:36.284Z,9.75
2023-01-02T10:22:04.318Z,8.52
2023-01-02T10:24:49.761Z,11.32
2023-01-02T10:27:28.827Z,9.55
2023-01-02T10:30:10.937Z,9.23
2023-01-02T10:32:39.405Z,11.95
2023-01-02T10:35:06.659Z,12.10
2023-01-02T10:37:35.900Z,9.00
2023-01-02T10:40:04.839Z,12.75
2023-01-02T10:42:33.249Z,10.65
2023-01-02T10:45:01.492Z,11.85
2023-01-02T10:47:39.143Z,16.30
2023-01-02T10:50:11.298Z,15.35
2023-01-02T10:52:50.017Z,13.25
2023-01-02T10:55:40.110Z,16.33
2023-01-02T10:58:24.668Z,14.55
2023-01-02T11:01:19.301Z,12.82
2023-01-02T11:04:06.677Z,14.43
2023-01-02T11:06:39.750Z,14.27
2023-01-02T11:09:21.983Z,12.07
2023-01-02T11:11:51.198Z,21.17
2023-01-02T11:14:22.651Z,17.38
2023-01-02T11:16:50.481Z,14.63
2023-01-02T11:19:29.267Z,19.33
2023-01-02T11:21:58.070Z,18.30
2023-01-02T11:24:28.535Z,19.98
2023-01-02T11:26:56.220Z,17.80
2023-01-02T11:29:31.087Z,17.02
2023-01-02T11:32:02.165Z,20.80
2023-01-02T11:34:38.547Z,17.98
2023-01-02T11:37:12.760Z,20.10
2023-01-02T11:39:40.671Z,19.80
2023-01-02T11:42:39.765Z,17.90
2023-01-02T11:45:17.854Z,20.73
2023-01-02T11:47:55.303Z,21.13
2023-01-02T11:50:25.936Z,22.77
2023-01-02T11:53:02.327Z,18.40
2023-01-02T11:56:16.771Z,19.85
2023-01-02T11:59:01.126Z,19.20
2023-01-02T12:01:32.150Z,18.35
2023-01-02T12:04:00.259Z,22.23
2023-01-02T12:06:43.174Z,19.67
2023-01-02T12:09:14.226Z,25.40
2023-01-02T12:12:07.195Z,14.35
2023-01-02T12:14:54.985Z,16.92
2023-01-02T12:17:41.323Z,20.63
2023-01-02T12:20:30.535Z,20.25
2023-01-02T12:23:15.965Z,14.18
2023-01-02T12:25:49.414Z,27.60
2023-01-02T12:28:38.452Z,21.42
2023-01-02T12:31:44.093Z,14.85
2023-01-02T12:34:36.508Z,18.45
2023-01-02T12:37:24.955Z,17.70
2023-01-02T12:40:04.396Z,17.05
2023-01-02T12:42:50.629Z,21.70
2023-01-02T12:45:54.814Z,17.83
2023-01-02T12:48:32.306Z,20.55
2023-01-02T12:51:30.131Z,16.70
2023-01-02T12:54:19.772Z,21.02
2023-01-02T12:57:00.494Z,22.08
2023-01-02T12:59:53.032Z,19.73
2023-01-02T13:02:41.625Z,19.33
2023-01-02T13:05:17.483Z,19.85
2023-01-02T13:07:53.762Z,22.95
2023-01-02T13:10:24.645Z,19.95
2023-01-02T13:12:52.716Z,22.48
2023-01-02T13:15:26.112Z,22.23
2023-01-02T13:18:04.813Z,22.90
2023-01-02T13:20:46.086Z,21.55
2023-01-02T13:23:31.998Z,19.48
2023-01-02T13:26:08.221Z,17.08
2023-01-02T13:29:07.003Z,20.20
2023-01-02T13:31:46.928Z,18.02
2023-01-02T13:34:32.317Z,22.85
2023-01-02T13:37:08.809Z,17.77
2023-01-02T13:39:42.396Z,21.42
2023-01-02T13:42:42.831Z,16.90
2023-01-02T13:45:16.621Z,18.13
2023-01-02T13:47:52.854Z,19.90
2023-01-02T13:50:23.724Z,16.70
2023-01-02T13:53:05.843Z,21.15
2023-01-02T13:55:40.690Z,22.13
2023-01-02T13:58:15.807Z,19.30
2023-01-02T14:00:51.599Z,22.23
2023-01-02T14:03:21.660Z,24.13
2023-01-02T14:05:58.423Z,20.92
2023-01-02T14:08:31.808Z,20.50
2023-01-02T14:11:13.562Z,18.70
2023-01-02T14:13:45.911Z,17.50
2023-01-02T14:16:37.959Z,16.90
2023-01-02T14:19:14.199Z,23.67
2023-01-02T14:22:03.670Z,15.65
2023-01-02T14:24:37.081Z,14.70
2023-01-02T14:27:07.438Z,18.50
2023-01-02T14:30:01.861Z,11.85
2023-01-02T14:32:35.549Z,11.88
2023-01-02T14:35:14.787Z,11.32
2023-01-02T14:37:49.549Z,12.77
2023-01-02T14:40:23.939Z,13.73
2023-01-02T14:43:33.929Z,10.80
2023-01-02T14:46:09.387Z,13.52
2023-01-02T14:48:49.186Z,14.55
2023-01-02T14:51:26.743Z,8.93
2023-01-02T14:54:25.160Z,7.82
2023-01-02T14:57:02.184Z,8.52
2023-01-02T14:59:53.318Z,9.38
2023-01-02T15:02:25.171Z,13.93
2023-01-02T15:04:57.073Z,8.73
2023-01-02T15:07:25.865Z,14.18
2023-01-02T15:10:04.706Z,11.48
2023-01-02T15:12:52.894Z,10.82
2023-01-02T15:15:25.326Z,11.38
2023-01-02T15:17:53.361Z,11.32
2023-01-02T15:20:26.301Z,8.80
2023-01-02T15:25:39.390Z,8.50
2023-01-02T15:28:29.131Z,12.30
2023-01-02T15:31:01.635Z,8.73
2023-01-02T15:33:34.010Z,8.35
2023-01-02T15:36:24.465Z,11.18
2023-01-02T15:38:52.002Z,9.77
2023-01-02T15:41:19.867Z,12.73
2023-01-02T15:44:06.318Z,12.90
2023-01-02T15:46:33.834Z,14.63
2023-01-02T15:49:03.028Z,13.77
2023-01-02T15:51:41.299Z,11.30
2023-01-02T15:54:16.109Z,8.27
2023-01-02T15:56:43.922Z,12.32
2023-01-02T15:59:34.590Z,11.98
2023-01-02T16:02:03.299Z,15.27
2023-01-02T16:04:33.413Z,16.42
2023-01-02T16:07:21.058Z,10.05
2023-01-02T16:09:54.882Z,9.60
2023-01-02T16:12:23.769Z,6.90
2023-01-02T16:14:55.784Z,7.50
2023-01-02T16:17:37.454Z,6.40
2023-01-02T16:20:13.818Z,5.45
2023-01-02T16:22:50.907Z,5.47
2023-01-02T16:25:21.579Z,5.07
2023-01-02T16:28:00.946Z,7.85
2023-01-02T16:30:40.922Z,8.00
2023-01-02T16:33:30.453Z,7.22
2023-01-02T16:36:05.516Z,9.32
2023-01-02T16:38:54.618Z,10.68
2023-01-02T16:41:37.304Z,14.30
2023-01-02T16:44:15.948Z,10.68
2023-01-02T16:46:47.861Z,11.43
2023-01-02T16:49:17.514Z,16.27
2023-01-02T16:51:47.321Z,13.13
2023-01-02T16:54:15.487Z,17.58
2023-01-02T16:56:43.134Z,15.02
2023-01-02T16:59:10.903Z,13.55
2023-01-02T17:01:38.452Z,19.95
2023-01-02T17:04:06.157Z,17.13
2023-01-02T17:06:33.589Z,18.90
2023-01-02T17:09:01.159Z,16.38
2023-01-02T17:11:28.826Z,20.00
2023-01-02T17:13:56.322Z,24.75
2023-01-02T17:16:23.754Z,23.23
2023-01-02T17:18:51.132Z,23.65
2023-01-02T17:21:19.541Z,17.75
2023-01-02T17:23:46.918Z,19.50
2023-01-02T17:26:14.330Z,15.85
2023-01-02T17:28:44.797Z,24.00
2023-01-02T17:31:15.390Z,23.13
2023-01-02T17:33:43.000Z,21.88
2023-01-02T17:36:12.350Z,17.65
2023-01-02T17:38:39.853Z,20.23
2023-01-02T17:41:11.905Z,23.75
2023-01-02T17:43:39.481Z,19.33
2023-01-02T17:47:00.798Z,20.10
2023-01-02T17:49:22.957Z,16.30
2023-01-02T17:51:51.248Z,20.73
2023-01-02T17:54:19.946Z,22.23
2023-01-02T17:56:50.175Z,25.15
2023-01-02T17:59:20.538Z,24.08
2023-01-02T18:01:48.435Z,25.15
2023-01-02T18:04:16.387Z,16.48
2023-01-02T18:06:44.163Z,14.90
2023-01-02T18:09:11.753Z,17.98
2023-01-02T18:11:39.327Z,19.13
2023-01-02T18:14:21.784Z,22.10
2023-01-02T18:16:53.791Z,22.40
2023-01-02T18:19:26.870Z,16.17
2023-01-02T18:21:56.546Z,21.45
2023-01-02T18:24:27.816Z,23.10
2023-01-02T18:26:59.895Z,17.40
2023-01-02T18:29:29.785Z,25.20
2023-01-02T18:34:48.266Z,26.63
2023-01-02T18:40:03.095Z,17.08
2023-01-02T18:42:35.266Z,23.73
2023-01-02T18:45:04.473Z,21.73
2023-01-02T18:47:39.600Z,15.27
2023-01-02T18:50:23.281Z,13.02
2023-01-02T18:52:51.967Z,16.98
2023-01-02T19:01:37.674Z,18.02
2023-01-02T19:04:31.655Z,15.30
2023-01-02T19:07:40.331Z,22.70
2023-01-02T19:13:07.579Z,24.70
2023-01-02T19:15:51.647Z,24.25
2023-01-02T19:18:34.212Z,21.23
2023-01-02T19:21:30.756Z,21.73
2023-01-02T19:24:27.763Z,18.05
2023-01-02T19:27:08.050Z,18.40
2023-01-02T19:29:50.868Z,26.83
2023-01-02T19:32:40.043Z,19.73
2023-01-02T19:35:34.392Z,15.80
2023-01-02T19:38:17.970Z,17.60
2023-01-02T19:40:45.601Z,20.77
2023-01-02T19:43:13.241Z,16.65
2023-01-02T19:48:22.466Z,17.83
2023-01-02T19:50:50.177Z,25.27
2023-01-02T19:53:17.847Z,25.65
2023-01-02T19:55:45.543Z,24.42
2023-01-02T19:58:16.399Z,21.20
2023-01-02T20:00:44.935Z,17.80
2023-01-02T20:03:13.039Z,20.08
2023-01-02T20:05:41.164Z,15.95
2023-01-02T20:08:12.398Z,19.95
2023-01-02T20:10:41.675Z,20.95
2023-01-02T20:13:09.316Z,22.90
2023-01-02T20:15:37.312Z,20.92
2023-01-02T20:18:09.008Z,19.92
2023-01-02T20:20:37.044Z,20.27
2023-01-02T20:23:04.716Z,25.17
2023-01-02T20:25:36.826Z,25.38
2023-01-02T20:28:04.803Z,22.10
2023-01-02T20:30:32.713Z,25.17
2023-01-02T20:33:01.913Z,20.35
2023-01-02T20:35:29.548Z,23.67
2023-01-02T20:37:57.375Z,26.63
2023-01-02T20:40:25.301Z,26.30
2023-01-02T20:42:52.769Z,25.00
2023-01-02T20:45:20.359Z,19.58
2023-01-02T20:47:51.913Z,28.25
2023-01-02T20:50:19.591Z,24.55
2023-01-02T20:52:56.951Z,27.50
2023-01-02T20:55:24.977Z,24.70
2023-01-02T20:57:54.420Z,26.77
2023-01-02T21:00:22.074Z,23.75
2023-01-02T21:02:49.857Z,20.10
2023-01-02T21:05:19.498Z,22.05
2023-01-02T21:07:47.072Z,20.80
2023-01-02T21:10:26.137Z,21.83
2023-01-02T21:13:11.202Z,25.35
2023-01-02T21:15:48.170Z,17.83
2023-01-02T21:18:27.441Z,21.75
2023-01-02T21:21:00.184Z,18.52
2023-01-02T21:23:29.098Z,19.17
2023-01-02T21:25:58.032Z,25.88
2023-01-02T21:28:26.921Z,24.83
2023-01-02T21:30:54.506Z,17.15
2023-01-02T21:33:23.337Z,21.83
2023-01-02T21:35:51.727Z,16.33
2023-01-02T21:38:21.289Z,28.80
2023-01-02T21:40:49.200Z,21.33
2023-01-02T21:43:16.751Z,21.02
2023-01-02T21:45:44.293Z,24.02
2023-01-02T21:48:11.709Z,21.85
2023-01-02T21:50:39.098Z,26.38
2023-01-02T21:53:06.551Z,27.67
2023-01-02T21:55:33.875Z,22.80
2023-01-02T21:58:16.906Z,25.63
2023-01-02T22:00:44.415Z,22.80
2023-01-02T22:03:12.110Z,32.42
2023-01-02T22:05:39.728Z,23.23
2023-01-02T22:08:07.200Z,26.50
2023-01-02T22:10:34.550Z,29.73
2023-01-02T22:13:04.758Z,26.95
2023-01-02T22:15:32.096Z,27.45
2023-01-02T22:17:59.436Z,27.27
2023-01-02T22:20:26.783Z,26.33
2023-01-02T22:22:54.184Z,21.88
2023-01-02T22:25:21.452Z,28.95
2023-01-02T22:27:48.788Z,19.23
2023-01-02T22:30:24.300Z,20.27
2023-01-02T22:32:53.743Z,28.33
2023-01-02T22:35:21.030Z,17.98
2023-01-02T22:37:48.442Z,27.33
2023-01-02T22:40:16.357Z,24.83
2023-01-02T22:43:04.265Z,20.92
2023-01-02T22:45:40.127Z,24.92
2023-01-02T22:48:14.323Z,17.27
2023-01-02T22:50:44.054Z,24.75
2023-01-02T22:53:22.329Z,19.70
2023-01-02T22:55:50.178Z,19.50
2023-01-02T22:58:17.966Z,21.67
2023-01-02T23:00:47.016Z,22.13
2023-01-02T23:03:15.719Z,18.25
2023-01-02T23:05:43.450Z,23.25
2023-01-02T23:08:10.925Z,28.92
2023-01-02T23:10:38.509Z,23.75
2023-01-02T23:13:06.242Z,23.23
2023-01-02T23:15:33.604Z,28.63
2023-01-02T23:18:19.461Z,26.23
2023-01-02T23:20:46.771Z,29.38
2023-01-02T23:23:14.303Z,35.08
2023-01-02T23:25:43.301Z,44.78
2023-01-02T23:28:16.573Z,34.70
2023-01-02T23:30:58.023Z,38.03
2023-01-02T23:33:25.445Z,38.88
2023-01-02T23:35:53.359Z,44.47
2023-01-02T23:38:20.690Z,45.55
2023-01-02T23:40:48.162Z,48.78
2023-01-02T23:43:17.017Z,51.30
2023-01-02T23:45:44.408Z,53.42
2023-01-02T23:48:11.710Z,54.55
2023-01-02T23:50:39.042Z,55.75
2023-01-02T23:53:06.340Z,53.75
2023-01-02T23:55:33.651Z,61.95
2023-01-02T23:58:01.022Z,61.15
